createdAt,value
2022-08-20T00:06:25.020Z,26.2
2022-08-20T00:16:27.166Z,26.2
2022-08-20T00:26:28.854Z,26.2
2022-08-20T00:36:32.625Z,26.2
2022-08-20T00:46:33.558Z,26.2
2022-08-20T01:06:37.914Z,26.2
2022-08-20T01:16:40.687Z,26.2
2022-08-20T01:36:46.076Z,26.2
2022-08-20T01:56:47.565Z,26.1
2022-08-20T02:06:56.043Z,26.1
2022-08-20T02:16:54.592Z,26.1
2022-08-20T02:26:54.444Z,26.1
2022-08-20T02:36:57.091Z,26
2022-08-20T02:46:59.011Z,26
2022-08-20T02:57:00.930Z,26
2022-08-20T03:07:02.811Z,25.9
2022-08-20T03:17:05.033Z,25.9
2022-08-20T03:27:06.962Z,25.9
2022-08-20T03:37:09.511Z,25.8
2022-08-20T03:57:13.923Z,25.8
2022-08-20T04:07:16.378Z,25.8
2022-08-20T04:17:18.580Z,25.7
2022-08-20T04:27:20.970Z,25.7
2022-08-20T04:37:23.155Z,25.6
2022-08-20T04:47:34.361Z,25.6
2022-08-20T04:57:27.835Z,25.6
2022-08-20T05:07:30.475Z,25.6
2022-08-20T05:17:32.573Z,25.5
2022-08-20T05:27:34.794Z,25.5
2022-08-20T05:37:37.270Z,25.5
2022-08-20T05:47:42.751Z,25.5
2022-08-20T05:57:42.072Z,25.4
2022-08-20T06:07:44.418Z,25.4
2022-08-20T06:17:46.912Z,25.4
2022-08-20T06:27:48.863Z,25.4
2022-08-20T06:37:51.154Z,25.4
2022-08-20T06:47:52.943Z,25.4
2022-08-20T06:57:54.611Z,25.4
2022-08-20T07:07:57.233Z,25.4
2022-08-20T07:18:01.276Z,25.4
2022-08-20T07:28:02.443Z,25.4
2022-08-20T07:38:04.318Z,25.4
2022-08-20T07:48:06.644Z,25.4
2022-08-20T07:58:08.570Z,25.4
2022-08-20T08:08:11.111Z,25.4
2022-08-20T08:18:13.611Z,25.4
2022-08-20T08:28:15.585Z,25.4
2022-08-20T08:38:17.908Z,25.4
2022-08-20T08:48:20.476Z,25.4
2022-08-20T08:58:22.787Z,25.5
2022-08-20T09:08:25.241Z,25.5
2022-08-20T09:18:27.797Z,25.5
2022-08-20T09:28:32.182Z,25.5
2022-08-20T09:38:31.944Z,25.6
2022-08-20T09:48:34.073Z,25.6
2022-08-20T09:58:36.123Z,25.6
2022-08-20T10:08:38.440Z,25.6
2022-08-20T10:18:40.813Z,25.6
2022-08-20T10:28:42.983Z,25.6
2022-08-20T10:38:45.144Z,25.6
2022-08-20T10:48:47.059Z,25.6
2022-08-20T11:08:51.422Z,25.6
2022-08-20T11:18:53.856Z,25.7
2022-08-20T11:28:56.477Z,25.7
2022-08-20T11:38:58.549Z,25.7
2022-08-20T11:49:00.928Z,25.7
2022-08-20T12:09:05.559Z,25.7
2022-08-20T12:29:09.867Z,25.8
2022-08-20T12:39:11.791Z,25.8
2022-08-20T12:59:15.990Z,25.8
2022-08-20T13:09:18.253Z,25.8
2022-08-20T13:19:20.457Z,25.8
2022-08-20T13:29:29.733Z,25.7
2022-08-20T13:59:36.378Z,25.7
2022-08-20T14:29:42.580Z,25.7
2022-08-20T14:39:44.694Z,25.8
2022-08-20T15:29:55.778Z,25.8
2022-08-20T15:50:00.066Z,25.7
2022-08-20T16:00:01.822Z,25.7
2022-08-20T16:10:04.295Z,25.7
2022-08-20T16:20:06.454Z,25.7
2022-08-20T17:10:18.203Z,25.6
2022-08-20T17:20:20.616Z,25.6
2022-08-20T17:30:21.753Z,25.6
2022-08-20T17:40:24.123Z,25.6
2022-08-20T17:50:25.827Z,25.6
2022-08-20T18:10:30.109Z,25.6
2022-08-20T18:20:36.920Z,25.6
2022-08-20T18:30:34.696Z,25.6
2022-08-20T18:40:36.475Z,25.5
2022-08-20T18:50:38.402Z,25.5
2022-08-20T19:00:40.815Z,25.5
2022-08-20T19:10:42.535Z,25.5
2022-08-20T19:20:45.175Z,25.4
2022-08-20T19:30:47.536Z,25.4
2022-08-20T19:40:50.618Z,25.4
2022-08-20T19:50:51.909Z,25.3
2022-08-20T20:00:54.366Z,25.3
2022-08-20T20:10:56.568Z,25.3
2022-08-20T20:20:58.371Z,25.3
2022-08-20T20:31:00.086Z,25.3
2022-08-20T20:41:01.965Z,25.3
2022-08-20T21:01:06.893Z,25.2
2022-08-20T21:11:09.114Z,25.2
2022-08-20T21:21:11.278Z,25.2
2022-08-20T21:31:13.679Z,25.2
2022-08-20T21:41:15.354Z,25.1
2022-08-20T21:51:18.002Z,25.1
2022-08-20T22:11:22.137Z,25.1
2022-08-20T22:21:24.729Z,25.1
2022-08-20T22:31:26.782Z,25.1
2022-08-20T22:41:28.742Z,25.1
2022-08-20T22:51:31.353Z,25
2022-08-20T23:01:33.615Z,25
2022-08-20T23:11:35.327Z,25
2022-08-20T23:21:37.829Z,24.9
2022-08-20T23:31:40.376Z,24.9
2022-08-20T23:51:44.996Z,24.8
